sensor_id;sensor_type;location;lat;lon;timestamp;temperature;humidity
37658;DHT22;23500;53.268;8.308;2022-12-18T00:01:33;12.30;66.80
37658;DHT22;23500;53.268;8.308;2022-12-18T00:04:00;12.30;67.50
37658;DHT22;23500;53.268;8.308;2022-12-18T00:06:28;12.30;67.20
37658;DHT22;23500;53.268;8.308;2022-12-18T00:08:55;12.30;67.00
37658;DHT22;23500;53.268;8.308;2022-12-18T00:11:24;12.30;65.40
37658;DHT22;23500;53.268;8.308;2022-12-18T00:13:51;12.30;65.70
37658;DHT22;23500;53.268;8.308;2022-12-18T00:16:22;12.30;65.80
37658;DHT22;23500;53.268;8.308;2022-12-18T00:18:59;12.30;65.70
37658;DHT22;23500;53.268;8.308;2022-12-18T00:21:26;12.20;65.70
37658;DHT22;23500;53.268;8.308;2022-12-18T00:23:52;12.30;65.00
37658;DHT22;23500;53.268;8.308;2022-12-18T00:26:19;12.20;64.80
37658;DHT22;23500;53.268;8.308;2022-12-18T00:28:46;12.20;64.90
37658;DHT22;23500;53.268;8.308;2022-12-18T00:31:20;12.20;65.00
37658;DHT22;23500;53.268;8.308;2022-12-18T00:33:47;12.10;65.30
37658;DHT22;23500;53.268;8.308;2022-12-18T00:36:16;12.10;65.20
37658;DHT22;23500;53.268;8.308;2022-12-18T00:38:43;12.10;65.40
37658;DHT22;23500;53.268;8.308;2022-12-18T00:41:10;12.10;65.20
37658;DHT22;23500;53.268;8.308;2022-12-18T00:43:37;12.10;65.40
37658;DHT22;23500;53.268;8.308;2022-12-18T00:46:03;12.10;65.60
37658;DHT22;23500;53.268;8.308;2022-12-18T00:48:28;12.00;66.30
37658;DHT22;23500;53.268;8.308;2022-12-18T00:50:54;12.00;66.50
37658;DHT22;23500;53.268;8.308;2022-12-18T00:53:20;12.00;66.70
37658;DHT22;23500;53.268;8.308;2022-12-18T00:55:46;12.00;66.70
37658;DHT22;23500;53.268;8.308;2022-12-18T00:58:13;12.00;66.90
37658;DHT22;23500;53.268;8.308;2022-12-18T01:00:39;12.00;66.90
37658;DHT22;23500;53.268;8.308;2022-12-18T01:03:05;12.00;66.10
37658;DHT22;23500;53.268;8.308;2022-12-18T01:05:32;12.00;65.80
37658;DHT22;23500;53.268;8.308;2022-12-18T01:07:57;12.00;65.60
37658;DHT22;23500;53.268;8.308;2022-12-18T01:10:24;11.90;65.40
37658;DHT22;23500;53.268;8.308;2022-12-18T01:12:51;11.90;65.80
37658;DHT22;23500;53.268;8.308;2022-12-18T01:15:18;12.00;65.40
37658;DHT22;23500;53.268;8.308;2022-12-18T01:17:43;12.00;65.70
37658;DHT22;23500;53.268;8.308;2022-12-18T01:20:11;12.10;65.60
37658;DHT22;23500;53.268;8.308;2022-12-18T01:22:37;12.30;65.60
37658;DHT22;23500;53.268;8.308;2022-12-18T01:25:04;12.40;65.60
37658;DHT22;23500;53.268;8.308;2022-12-18T01:27:30;12.50;65.60
37658;DHT22;23500;53.268;8.308;2022-12-18T01:29:56;12.70;65.70
37658;DHT22;23500;53.268;8.308;2022-12-18T01:32:22;12.90;65.80
37658;DHT22;23500;53.268;8.308;2022-12-18T01:34:48;13.10;65.20
37658;DHT22;23500;53.268;8.308;2022-12-18T01:37:13;13.30;64.90
37658;DHT22;23500;53.268;8.308;2022-12-18T01:39:39;13.40;64.10
37658;DHT22;23500;53.268;8.308;2022-12-18T01:42:11;13.60;63.90
37658;DHT22;23500;53.268;8.308;2022-12-18T01:47:48;13.80;63.40
37658;DHT22;23500;53.268;8.308;2022-12-18T01:52:48;14.00;62.40
37658;DHT22;23500;53.268;8.308;2022-12-18T01:55:17;14.00;62.50
37658;DHT22;23500;53.268;8.308;2022-12-18T01:57:43;14.00;61.50
37658;DHT22;23500;53.268;8.308;2022-12-18T02:00:20;14.00;60.50
37658;DHT22;23500;53.268;8.308;2022-12-18T02:02:46;14.00;60.70
37658;DHT22;23500;53.268;8.308;2022-12-18T02:05:26;14.00;60.10
37658;DHT22;23500;53.268;8.308;2022-12-18T02:13:29;13.90;60.40
37658;DHT22;23500;53.268;8.308;2022-12-18T02:18:38;13.70;60.70
37658;DHT22;23500;53.268;8.308;2022-12-18T02:23:45;13.60;60.10
37658;DHT22;23500;53.268;8.308;2022-12-18T02:26:29;13.50;61.00
37658;DHT22;23500;53.268;8.308;2022-12-18T02:29:00;13.40;61.10
37658;DHT22;23500;53.268;8.308;2022-12-18T02:31:31;13.30;61.40
37658;DHT22;23500;53.268;8.308;2022-12-18T02:34:03;13.30;61.20
37658;DHT22;23500;53.268;8.308;2022-12-18T02:36:32;13.20;61.50
37658;DHT22;23500;53.268;8.308;2022-12-18T02:38:59;13.20;61.90
37658;DHT22;23500;53.268;8.308;2022-12-18T02:41:26;13.10;62.10
37658;DHT22;23500;53.268;8.308;2022-12-18T02:43:59;13.10;62.50
37658;DHT22;23500;53.268;8.308;2022-12-18T03:00:08;12.90;62.50
37658;DHT22;23500;53.268;8.308;2022-12-18T03:02:42;12.90;61.60
37658;DHT22;23500;53.268;8.308;2022-12-18T03:05:20;13.00;62.00
37658;DHT22;23500;53.268;8.308;2022-12-18T03:10:28;13.10;62.10
37658;DHT22;23500;53.268;8.308;2022-12-18T03:13:01;13.10;61.40
37658;DHT22;23500;53.268;8.308;2022-12-18T03:15:31;13.10;61.50
37658;DHT22;23500;53.268;8.308;2022-12-18T03:18:10;13.20;61.60
37658;DHT22;23500;53.268;8.308;2022-12-18T03:20:40;13.10;61.70
37658;DHT22;23500;53.268;8.308;2022-12-18T03:23:15;13.10;61.30
37658;DHT22;23500;53.268;8.308;2022-12-18T03:25:44;13.10;61.70
37658;DHT22;23500;53.268;8.308;2022-12-18T03:28:15;13.00;62.00
37658;DHT22;23500;53.268;8.308;2022-12-18T03:30:43;13.00;62.50
37658;DHT22;23500;53.268;8.308;2022-12-18T03:33:15;12.90;62.00
37658;DHT22;23500;53.268;8.308;2022-12-18T03:35:44;12.90;62.50
37658;DHT22;23500;53.268;8.308;2022-12-18T03:38:11;12.90;62.50
37658;DHT22;23500;53.268;8.308;2022-12-18T03:40:50;12.80;62.50
37658;DHT22;23500;53.268;8.308;2022-12-18T03:43:43;12.80;63.40
37658;DHT22;23500;53.268;8.308;2022-12-18T03:46:28;12.70;62.80
37658;DHT22;23500;53.268;8.308;2022-12-18T03:49:03;12.70;63.20
37658;DHT22;23500;53.268;8.308;2022-12-18T03:51:35;12.60;62.60
37658;DHT22;23500;53.268;8.308;2022-12-18T03:54:04;12.50;62.40
37658;DHT22;23500;53.268;8.308;2022-12-18T03:56:35;12.50;62.20
37658;DHT22;23500;53.268;8.308;2022-12-18T03:59:03;12.50;62.50
37658;DHT22;23500;53.268;8.308;2022-12-18T04:01:38;12.50;62.60
37658;DHT22;23500;53.268;8.308;2022-12-18T04:04:06;12.60;63.00
37658;DHT22;23500;53.268;8.308;2022-12-18T04:06:33;12.70;62.00
37658;DHT22;23500;53.268;8.308;2022-12-18T04:09:00;12.70;62.40
37658;DHT22;23500;53.268;8.308;2022-12-18T04:11:26;12.80;62.00
37658;DHT22;23500;53.268;8.308;2022-12-18T04:13:55;12.80;61.30
37658;DHT22;23500;53.268;8.308;2022-12-18T04:16:23;12.80;62.50
37658;DHT22;23500;53.268;8.308;2022-12-18T04:18:49;12.80;61.70
37658;DHT22;23500;53.268;8.308;2022-12-18T04:21:14;12.80;61.90
37658;DHT22;23500;53.268;8.308;2022-12-18T04:23:40;12.70;62.10
37658;DHT22;23500;53.268;8.308;2022-12-18T04:26:06;12.70;62.00
37658;DHT22;23500;53.268;8.308;2022-12-18T04:28:31;12.70;62.60
37658;DHT22;23500;53.268;8.308;2022-12-18T04:30:57;12.60;62.80
37658;DHT22;23500;53.268;8.308;2022-12-18T04:33:23;12.60;63.00
37658;DHT22;23500;53.268;8.308;2022-12-18T04:35:48;12.60;62.80
37658;DHT22;23500;53.268;8.308;2022-12-18T04:38:14;12.50;62.10
37658;DHT22;23500;53.268;8.308;2022-12-18T04:40:40;12.50;62.60
37658;DHT22;23500;53.268;8.308;2022-12-18T04:43:06;12.50;62.90
37658;DHT22;23500;53.268;8.308;2022-12-18T04:45:32;12.40;62.60
37658;DHT22;23500;53.268;8.308;2022-12-18T04:47:59;12.30;62.50
37658;DHT22;23500;53.268;8.308;2022-12-18T04:50:24;12.30;62.50
37658;DHT22;23500;53.268;8.308;2022-12-18T04:52:50;12.20;62.60
37658;DHT22;23500;53.268;8.308;2022-12-18T04:55:16;12.20;62.50
37658;DHT22;23500;53.268;8.308;2022-12-18T04:57:41;12.20;62.70
37658;DHT22;23500;53.268;8.308;2022-12-18T05:00:08;12.30;62.60
37658;DHT22;23500;53.268;8.308;2022-12-18T05:02:33;12.30;61.70
37658;DHT22;23500;53.268;8.308;2022-12-18T05:04:59;12.40;61.80
37658;DHT22;23500;53.268;8.308;2022-12-18T05:07:25;12.40;61.80
37658;DHT22;23500;53.268;8.308;2022-12-18T05:09:50;12.40;61.20
37658;DHT22;23500;53.268;8.308;2022-12-18T05:12:16;12.40;61.20
37658;DHT22;23500;53.268;8.308;2022-12-18T05:14:42;12.40;61.50
37658;DHT22;23500;53.268;8.308;2022-12-18T05:17:07;12.40;61.70
37658;DHT22;23500;53.268;8.308;2022-12-18T05:19:33;12.40;61.70
37658;DHT22;23500;53.268;8.308;2022-12-18T05:21:59;12.40;61.80
37658;DHT22;23500;53.268;8.308;2022-12-18T05:24:25;12.40;62.00
37658;DHT22;23500;53.268;8.308;2022-12-18T05:26:51;12.30;62.10
37658;DHT22;23500;53.268;8.308;2022-12-18T05:29:16;12.30;62.30
37658;DHT22;23500;53.268;8.308;2022-12-18T05:31:42;12.20;62.00
37658;DHT22;23500;53.268;8.308;2022-12-18T05:34:07;12.20;61.90
37658;DHT22;23500;53.268;8.308;2022-12-18T05:36:33;12.20;62.20
37658;DHT22;23500;53.268;8.308;2022-12-18T05:38:59;12.10;62.30
37658;DHT22;23500;53.268;8.308;2022-12-18T05:41:26;12.10;62.50
37658;DHT22;23500;53.268;8.308;2022-12-18T05:43:51;12.10;63.00
37658;DHT22;23500;53.268;8.308;2022-12-18T05:46:17;12.00;62.70
37658;DHT22;23500;53.268;8.308;2022-12-18T05:48:44;12.00;62.60
37658;DHT22;23500;53.268;8.308;2022-12-18T05:51:15;11.90;62.50
37658;DHT22;23500;53.268;8.308;2022-12-18T05:53:42;11.90;62.70
37658;DHT22;23500;53.268;8.308;2022-12-18T05:56:10;12.00;62.80
37658;DHT22;23500;53.268;8.308;2022-12-18T05:58:36;12.00;62.40
37658;DHT22;23500;53.268;8.308;2022-12-18T06:01:14;12.10;62.10
37658;DHT22;23500;53.268;8.308;2022-12-18T06:03:40;12.10;62.70
37658;DHT22;23500;53.268;8.308;2022-12-18T06:06:17;12.20;61.80
37658;DHT22;23500;53.268;8.308;2022-12-18T06:08:43;12.30;62.20
37658;DHT22;23500;53.268;8.308;2022-12-18T06:11:09;12.30;61.60
37658;DHT22;23500;53.268;8.308;2022-12-18T06:13:36;12.20;61.80
37658;DHT22;23500;53.268;8.308;2022-12-18T06:16:04;12.20;61.80
37658;DHT22;23500;53.268;8.308;2022-12-18T06:18:29;12.20;61.90
37658;DHT22;23500;53.268;8.308;2022-12-18T06:20:56;12.20;62.00
37658;DHT22;23500;53.268;8.308;2022-12-18T06:23:22;12.20;62.20
37658;DHT22;23500;53.268;8.308;2022-12-18T06:25:48;12.10;62.20
37658;DHT22;23500;53.268;8.308;2022-12-18T06:28:14;12.10;62.40
37658;DHT22;23500;53.268;8.308;2022-12-18T06:30:39;12.10;62.20
37658;DHT22;23500;53.268;8.308;2022-12-18T06:33:05;12.10;62.50
37658;DHT22;23500;53.268;8.308;2022-12-18T06:35:32;12.10;62.20
37658;DHT22;23500;53.268;8.308;2022-12-18T06:37:57;12.10;62.60
37658;DHT22;23500;53.268;8.308;2022-12-18T06:40:23;12.00;62.60
37658;DHT22;23500;53.268;8.308;2022-12-18T06:42:48;12.00;63.10
37658;DHT22;23500;53.268;8.308;2022-12-18T06:45:14;11.90;62.80
37658;DHT22;23500;53.268;8.308;2022-12-18T06:47:40;11.80;62.70
37658;DHT22;23500;53.268;8.308;2022-12-18T06:50:06;11.80;62.60
37658;DHT22;23500;53.268;8.308;2022-12-18T06:52:33;11.80;63.00
37658;DHT22;23500;53.268;8.308;2022-12-18T06:54:59;11.90;62.40
37658;DHT22;23500;53.268;8.308;2022-12-18T06:57:24;11.90;62.80
37658;DHT22;23500;53.268;8.308;2022-12-18T06:59:50;12.00;62.40
37658;DHT22;23500;53.268;8.308;2022-12-18T07:02:16;12.00;62.20
37658;DHT22;23500;53.268;8.308;2022-12-18T07:04:41;12.10;62.10
37658;DHT22;23500;53.268;8.308;2022-12-18T07:07:07;12.10;61.50
37658;DHT22;23500;53.268;8.308;2022-12-18T07:09:33;12.10;61.50
37658;DHT22;23500;53.268;8.308;2022-12-18T07:11:58;12.20;61.70
37658;DHT22;23500;53.268;8.308;2022-12-18T07:14:24;12.20;61.90
37658;DHT22;23500;53.268;8.308;2022-12-18T07:16:49;12.20;62.00
37658;DHT22;23500;53.268;8.308;2022-12-18T07:19:15;12.10;61.80
37658;DHT22;23500;53.268;8.308;2022-12-18T07:21:41;12.20;61.80
37658;DHT22;23500;53.268;8.308;2022-12-18T07:24:06;12.10;62.00
37658;DHT22;23500;53.268;8.308;2022-12-18T07:26:32;12.10;61.80
37658;DHT22;23500;53.268;8.308;2022-12-18T07:28:58;12.10;62.20
37658;DHT22;23500;53.268;8.308;2022-12-18T07:31:24;12.00;62.00
37658;DHT22;23500;53.268;8.308;2022-12-18T07:33:51;12.00;62.30
37658;DHT22;23500;53.268;8.308;2022-12-18T07:36:17;12.00;61.90
37658;DHT22;23500;53.268;8.308;2022-12-18T07:38:43;12.00;62.20
37658;DHT22;23500;53.268;8.308;2022-12-18T07:41:13;11.90;62.40
37658;DHT22;23500;53.268;8.308;2022-12-18T07:43:40;11.90;62.80
37658;DHT22;23500;53.268;8.308;2022-12-18T07:46:06;11.80;62.40
37658;DHT22;23500;53.268;8.308;2022-12-18T07:48:32;11.80;62.80
37658;DHT22;23500;53.268;8.308;2022-12-18T07:51:02;11.80;62.60
37658;DHT22;23500;53.268;8.308;2022-12-18T07:53:29;11.70;62.70
37658;DHT22;23500;53.268;8.308;2022-12-18T07:56:00;11.70;62.30
37658;DHT22;23500;53.268;8.308;2022-12-18T07:58:26;11.80;62.60
37658;DHT22;23500;53.268;8.308;2022-12-18T08:00:52;11.90;62.60
37658;DHT22;23500;53.268;8.308;2022-12-18T08:03:18;12.00;62.20
37658;DHT22;23500;53.268;8.308;2022-12-18T08:05:44;12.10;62.50
37658;DHT22;23500;53.268;8.308;2022-12-18T08:08:10;12.30;61.90
37658;DHT22;23500;53.268;8.308;2022-12-18T08:10:37;12.40;61.70
37658;DHT22;23500;53.268;8.308;2022-12-18T08:13:04;12.50;62.40
37658;DHT22;23500;53.268;8.308;2022-12-18T08:15:29;12.60;61.00
37658;DHT22;23500;53.268;8.308;2022-12-18T08:17:58;12.60;60.60
37658;DHT22;23500;53.268;8.308;2022-12-18T08:20:24;12.60;60.40
37658;DHT22;23500;53.268;8.308;2022-12-18T08:22:49;12.60;60.10
37658;DHT22;23500;53.268;8.308;2022-12-18T08:25:15;12.60;60.00
37658;DHT22;23500;53.268;8.308;2022-12-18T08:27:41;12.60;60.10
37658;DHT22;23500;53.268;8.308;2022-12-18T08:30:07;12.60;59.90
37658;DHT22;23500;53.268;8.308;2022-12-18T08:32:33;12.50;59.90
37658;DHT22;23500;53.268;8.308;2022-12-18T08:34:59;12.50;60.30
37658;DHT22;23500;53.268;8.308;2022-12-18T08:37:25;12.50;60.40
37658;DHT22;23500;53.268;8.308;2022-12-18T08:39:50;12.50;60.40
37658;DHT22;23500;53.268;8.308;2022-12-18T08:42:16;12.50;60.60
37658;DHT22;23500;53.268;8.308;2022-12-18T08:45:00;12.40;60.50
37658;DHT22;23500;53.268;8.308;2022-12-18T08:47:26;12.40;60.50
37658;DHT22;23500;53.268;8.308;2022-12-18T08:49:51;12.40;60.70
37658;DHT22;23500;53.268;8.308;2022-12-18T08:52:17;12.30;61.10
37658;DHT22;23500;53.268;8.308;2022-12-18T08:54:43;12.30;61.30
37658;DHT22;23500;53.268;8.308;2022-12-18T08:57:08;12.30;61.50
37658;DHT22;23500;53.268;8.308;2022-12-18T08:59:34;12.20;61.50
37658;DHT22;23500;53.268;8.308;2022-12-18T09:02:00;12.20;61.20
37658;DHT22;23500;53.268;8.308;2022-12-18T09:04:25;12.20;62.00
37658;DHT22;23500;53.268;8.308;2022-12-18T09:06:51;12.20;62.10
37658;DHT22;23500;53.268;8.308;2022-12-18T09:09:16;12.20;62.30
37658;DHT22;23500;53.268;8.308;2022-12-18T09:11:42;12.30;62.20
37658;DHT22;23500;53.268;8.308;2022-12-18T09:14:09;12.40;62.40
37658;DHT22;23500;53.268;8.308;2022-12-18T09:16:35;12.60;62.50
37658;DHT22;23500;53.268;8.308;2022-12-18T09:19:03;12.70;61.90
37658;DHT22;23500;53.268;8.308;2022-12-18T09:21:34;12.70;61.70
37658;DHT22;23500;53.268;8.308;2022-12-18T09:24:00;12.80;61.00
37658;DHT22;23500;53.268;8.308;2022-12-18T09:26:26;12.80;61.10
37658;DHT22;23500;53.268;8.308;2022-12-18T09:28:53;12.80;61.20
37658;DHT22;23500;53.268;8.308;2022-12-18T09:31:21;12.80;61.00
37658;DHT22;23500;53.268;8.308;2022-12-18T09:33:47;12.80;60.90
37658;DHT22;23500;53.268;8.308;2022-12-18T09:36:15;12.80;60.70
37658;DHT22;23500;53.268;8.308;2022-12-18T09:38:41;12.80;61.00
37658;DHT22;23500;53.268;8.308;2022-12-18T09:47:09;12.70;61.70
37658;DHT22;23500;53.268;8.308;2022-12-18T09:49:45;12.70;61.40
37658;DHT22;23500;53.268;8.308;2022-12-18T09:52:30;12.70;61.40
37658;DHT22;23500;53.268;8.308;2022-12-18T09:57:49;12.60;61.70
37658;DHT22;23500;53.268;8.308;2022-12-18T10:00:21;12.60;61.40
37658;DHT22;23500;53.268;8.308;2022-12-18T10:02:48;12.60;61.40
37658;DHT22;23500;53.268;8.308;2022-12-18T10:05:18;12.50;60.80
37658;DHT22;23500;53.268;8.308;2022-12-18T10:10:55;12.60;59.50
37658;DHT22;23500;53.268;8.308;2022-12-18T10:13:08;12.60;60.00
37658;DHT22;23500;53.268;8.308;2022-12-18T10:21:15;12.90;61.00
37658;DHT22;23500;53.268;8.308;2022-12-18T10:26:27;13.00;60.30
37658;DHT22;23500;53.268;8.308;2022-12-18T10:28:53;13.00;59.80
37658;DHT22;23500;53.268;8.308;2022-12-18T10:31:21;13.00;60.10
37658;DHT22;23500;53.268;8.308;2022-12-18T10:33:47;12.90;59.90
37658;DHT22;23500;53.268;8.308;2022-12-18T10:36:14;12.90;60.30
37658;DHT22;23500;53.268;8.308;2022-12-18T10:38:40;12.90;60.20
37658;DHT22;23500;53.268;8.308;2022-12-18T10:43:44;12.90;60.70
37658;DHT22;23500;53.268;8.308;2022-12-18T10:48:40;12.90;61.80
37658;DHT22;23500;53.268;8.308;2022-12-18T10:51:07;12.80;61.10
37658;DHT22;23500;53.268;8.308;2022-12-18T10:53:36;12.80;61.00
37658;DHT22;23500;53.268;8.308;2022-12-18T10:56:04;12.80;60.80
37658;DHT22;23500;53.268;8.308;2022-12-18T10:58:32;12.70;60.30
37658;DHT22;23500;53.268;8.308;2022-12-18T11:01:15;12.70;59.80
37658;DHT22;23500;53.268;8.308;2022-12-18T11:03:44;12.70;60.30
37658;DHT22;23500;53.268;8.308;2022-12-18T11:06:14;12.70;60.00
37658;DHT22;23500;53.268;8.308;2022-12-18T11:08:42;12.80;60.00
37658;DHT22;23500;53.268;8.308;2022-12-18T11:11:28;12.80;59.80
37658;DHT22;23500;53.268;8.308;2022-12-18T11:14:04;12.90;60.60
37658;DHT22;23500;53.268;8.308;2022-12-18T11:16:36;13.00;59.90
37658;DHT22;23500;53.268;8.308;2022-12-18T11:19:32;13.10;59.40
37658;DHT22;23500;53.268;8.308;2022-12-18T11:22:00;13.10;59.90
37658;DHT22;23500;53.268;8.308;2022-12-18T11:24:34;13.20;59.00
37658;DHT22;23500;53.268;8.308;2022-12-18T11:27:02;13.20;59.10
37658;DHT22;23500;53.268;8.308;2022-12-18T11:29:34;13.20;59.00
37658;DHT22;23500;53.268;8.308;2022-12-18T11:34:48;13.20;60.20
37658;DHT22;23500;53.268;8.308;2022-12-18T11:37:16;13.20;59.50
37658;DHT22;23500;53.268;8.308;2022-12-18T11:40:06;13.20;59.90
37658;DHT22;23500;53.268;8.308;2022-12-18T11:42:44;13.20;60.30
37658;DHT22;23500;53.268;8.308;2022-12-18T11:47:57;13.10;59.90
37658;DHT22;23500;53.268;8.308;2022-12-18T11:50:32;13.10;60.80
37658;DHT22;23500;53.268;8.308;2022-12-18T11:52:59;13.10;59.80
37658;DHT22;23500;53.268;8.308;2022-12-18T11:58:08;13.00;59.70
37658;DHT22;23500;53.268;8.308;2022-12-18T12:01:28;13.00;59.30
37658;DHT22;23500;53.268;8.308;2022-12-18T12:03:53;13.00;59.10
37658;DHT22;23500;53.268;8.308;2022-12-18T12:12:15;13.10;59.80
37658;DHT22;23500;53.268;8.308;2022-12-18T12:20:53;13.30;59.10
37658;DHT22;23500;53.268;8.308;2022-12-18T12:23:55;13.40;58.80
37658;DHT22;23500;53.268;8.308;2022-12-18T12:26:33;13.40;59.40
37658;DHT22;23500;53.268;8.308;2022-12-18T12:35:14;13.30;59.60
37658;DHT22;23500;53.268;8.308;2022-12-18T12:40:18;13.20;58.90
37658;DHT22;23500;53.268;8.308;2022-12-18T12:42:57;13.20;59.20
37658;DHT22;23500;53.268;8.308;2022-12-18T12:45:49;13.20;59.70
37658;DHT22;23500;53.268;8.308;2022-12-18T12:51:25;13.10;59.70
37658;DHT22;23500;53.268;8.308;2022-12-18T12:53:52;13.10;59.20
37658;DHT22;23500;53.268;8.308;2022-12-18T12:56:20;13.00;59.00
37658;DHT22;23500;53.268;8.308;2022-12-18T13:01:38;13.00;58.50
37658;DHT22;23500;53.268;8.308;2022-12-18T13:07:18;13.00;59.30
37658;DHT22;23500;53.268;8.308;2022-12-18T13:10:38;13.10;59.50
37658;DHT22;23500;53.268;8.308;2022-12-18T13:20:43;13.30;58.40
37658;DHT22;23500;53.268;8.308;2022-12-18T13:33:46;13.30;58.10
37658;DHT22;23500;53.268;8.308;2022-12-18T13:36:29;13.30;59.00
37658;DHT22;23500;53.268;8.308;2022-12-18T13:41:41;13.20;59.20
37658;DHT22;23500;53.268;8.308;2022-12-18T13:44:12;13.20;58.30
37658;DHT22;23500;53.268;8.308;2022-12-18T13:46:44;13.10;58.80
37658;DHT22;23500;53.268;8.308;2022-12-18T13:51:49;13.10;58.40
37658;DHT22;23500;53.268;8.308;2022-12-18T13:54:38;13.00;59.20
37658;DHT22;23500;53.268;8.308;2022-12-18T13:57:22;13.10;59.00
37658;DHT22;23500;53.268;8.308;2022-12-18T13:59:50;13.00;58.30
37658;DHT22;23500;53.268;8.308;2022-12-18T14:02:20;13.10;58.90
37658;DHT22;23500;53.268;8.308;2022-12-18T14:04:47;13.10;58.80
37658;DHT22;23500;53.268;8.308;2022-12-18T14:09:56;13.20;58.50
37658;DHT22;23500;53.268;8.308;2022-12-18T14:12:27;13.30;58.30
37658;DHT22;23500;53.268;8.308;2022-12-18T14:17:41;13.30;57.60
37658;DHT22;23500;53.268;8.308;2022-12-18T14:20:15;13.30;57.70
37658;DHT22;23500;53.268;8.308;2022-12-18T14:22:45;13.30;58.40
37658;DHT22;23500;53.268;8.308;2022-12-18T14:25:27;13.30;58.20
37658;DHT22;23500;53.268;8.308;2022-12-18T14:30:44;13.20;58.80
37658;DHT22;23500;53.268;8.308;2022-12-18T14:33:13;13.10;59.10
37658;DHT22;23500;53.268;8.308;2022-12-18T14:35:57;13.10;58.30
37658;DHT22;23500;53.268;8.308;2022-12-18T14:38:32;13.10;59.20
37658;DHT22;23500;53.268;8.308;2022-12-18T14:41:03;13.10;58.80
37658;DHT22;23500;53.268;8.308;2022-12-18T14:43:33;13.00;58.50
37658;DHT22;23500;53.268;8.308;2022-12-18T14:45:59;13.00;58.80
37658;DHT22;23500;53.268;8.308;2022-12-18T14:56:27;12.90;60.10
37658;DHT22;23500;53.268;8.308;2022-12-18T14:58:57;13.00;59.60
37658;DHT22;23500;53.268;8.308;2022-12-18T15:01:35;13.00;59.40
37658;DHT22;23500;53.268;8.308;2022-12-18T15:04:03;13.10;58.80
37658;DHT22;23500;53.268;8.308;2022-12-18T15:06:37;13.20;58.70
37658;DHT22;23500;53.268;8.308;2022-12-18T15:09:22;13.20;59.80
37658;DHT22;23500;53.268;8.308;2022-12-18T15:11:48;13.20;59.00
37658;DHT22;23500;53.268;8.308;2022-12-18T15:16:55;13.20;59.10
37658;DHT22;23500;53.268;8.308;2022-12-18T15:19:24;13.20;58.00
37658;DHT22;23500;53.268;8.308;2022-12-18T15:21:51;13.20;58.50
37658;DHT22;23500;53.268;8.308;2022-12-18T15:24:20;13.20;58.50
37658;DHT22;23500;53.268;8.308;2022-12-18T15:26:47;13.10;58.40
37658;DHT22;23500;53.268;8.308;2022-12-18T15:29:21;13.10;58.50
37658;DHT22;23500;53.268;8.308;2022-12-18T15:32:02;13.10;59.00
37658;DHT22;23500;53.268;8.308;2022-12-18T15:34:29;13.00;59.20
37658;DHT22;23500;53.268;8.308;2022-12-18T15:36:55;13.00;58.50
37658;DHT22;23500;53.268;8.308;2022-12-18T15:39:20;13.00;58.30
37658;DHT22;23500;53.268;8.308;2022-12-18T15:41:46;12.90;58.80
37658;DHT22;23500;53.268;8.308;2022-12-18T15:44:30;12.90;58.70
37658;DHT22;23500;53.268;8.308;2022-12-18T15:46:57;12.80;58.20
37658;DHT22;23500;53.268;8.308;2022-12-18T15:49:23;12.90;59.10
37658;DHT22;23500;53.268;8.308;2022-12-18T15:51:52;12.90;58.40
37658;DHT22;23500;53.268;8.308;2022-12-18T15:54:19;12.90;58.50
37658;DHT22;23500;53.268;8.308;2022-12-18T15:57:07;12.90;58.50
37658;DHT22;23500;53.268;8.308;2022-12-18T15:59:49;13.00;58.40
37658;DHT22;23500;53.268;8.308;2022-12-18T16:02:17;13.10;58.00
37658;DHT22;23500;53.268;8.308;2022-12-18T16:04:43;13.20;58.60
37658;DHT22;23500;53.268;8.308;2022-12-18T16:07:09;13.20;57.80
37658;DHT22;23500;53.268;8.308;2022-12-18T16:09:35;13.20;57.70
37658;DHT22;23500;53.268;8.308;2022-12-18T16:12:01;13.20;57.80
37658;DHT22;23500;53.268;8.308;2022-12-18T16:14:29;13.20;57.80
37658;DHT22;23500;53.268;8.308;2022-12-18T16:16:57;13.20;57.70
37658;DHT22;23500;53.268;8.308;2022-12-18T16:19:23;13.20;58.30
37658;DHT22;23500;53.268;8.308;2022-12-18T16:21:52;13.20;57.60
37658;DHT22;23500;53.268;8.308;2022-12-18T16:24:20;13.10;58.00
37658;DHT22;23500;53.268;8.308;2022-12-18T16:26:47;13.10;57.80
37658;DHT22;23500;53.268;8.308;2022-12-18T16:29:14;13.10;57.50
37658;DHT22;23500;53.268;8.308;2022-12-18T16:31:39;13.00;57.60
37658;DHT22;23500;53.268;8.308;2022-12-18T16:34:18;13.00;58.10
37658;DHT22;23500;53.268;8.308;2022-12-18T16:36:49;13.00;58.60
37658;DHT22;23500;53.268;8.308;2022-12-18T16:39:15;12.90;57.60
37658;DHT22;23500;53.268;8.308;2022-12-18T16:41:41;12.90;57.90
37658;DHT22;23500;53.268;8.308;2022-12-18T16:44:07;12.90;57.70
37658;DHT22;23500;53.268;8.308;2022-12-18T16:46:32;12.90;58.10
37658;DHT22;23500;53.268;8.308;2022-12-18T16:48:59;12.90;58.70
37658;DHT22;23500;53.268;8.308;2022-12-18T16:51:26;12.90;57.70
37658;DHT22;23500;53.268;8.308;2022-12-18T16:53:53;13.00;58.10
37658;DHT22;23500;53.268;8.308;2022-12-18T16:56:20;13.00;57.60
37658;DHT22;23500;53.268;8.308;2022-12-18T16:58:57;13.10;57.50
37658;DHT22;23500;53.268;8.308;2022-12-18T17:01:27;13.10;58.00
37658;DHT22;23500;53.268;8.308;2022-12-18T17:04:02;13.10;57.30
37658;DHT22;23500;53.268;8.308;2022-12-18T17:06:30;13.10;57.00
37658;DHT22;23500;53.268;8.308;2022-12-18T17:09:00;13.10;57.20
37658;DHT22;23500;53.268;8.308;2022-12-18T17:11:28;13.10;57.20
37658;DHT22;23500;53.268;8.308;2022-12-18T17:13:54;13.10;57.30
37658;DHT22;23500;53.268;8.308;2022-12-18T17:16:20;13.00;57.30
37658;DHT22;23500;53.268;8.308;2022-12-18T17:18:46;13.00;57.90
37658;DHT22;23500;53.268;8.308;2022-12-18T17:21:12;13.00;57.70
37658;DHT22;23500;53.268;8.308;2022-12-18T17:23:40;13.00;57.60
37658;DHT22;23500;53.268;8.308;2022-12-18T17:26:06;13.00;57.70
37658;DHT22;23500;53.268;8.308;2022-12-18T17:28:33;13.00;57.40
37658;DHT22;23500;53.268;8.308;2022-12-18T17:30:59;12.90;56.90
37658;DHT22;23500;53.268;8.308;2022-12-18T17:33:26;12.90;57.00
37658;DHT22;23500;53.268;8.308;2022-12-18T17:35:52;12.80;57.40
37658;DHT22;23500;53.268;8.308;2022-12-18T17:38:18;12.80;57.30
37658;DHT22;23500;53.268;8.308;2022-12-18T17:40:44;12.80;57.40
37658;DHT22;23500;53.268;8.308;2022-12-18T17:43:10;12.80;56.90
37658;DHT22;23500;53.268;8.308;2022-12-18T17:45:39;12.80;57.30
37658;DHT22;23500;53.268;8.308;2022-12-18T17:48:05;12.80;57.60
37658;DHT22;23500;53.268;8.308;2022-12-18T17:50:33;12.90;57.60
37658;DHT22;23500;53.268;8.308;2022-12-18T17:52:58;13.00;57.10
37658;DHT22;23500;53.268;8.308;2022-12-18T17:55:25;13.00;56.90
37658;DHT22;23500;53.268;8.308;2022-12-18T17:57:51;13.00;57.40
37658;DHT22;23500;53.268;8.308;2022-12-18T18:00:17;13.00;56.30